Time;durP1;ratioP1;P1;durP2;ratioP2;P2;SDS_P1;SDS_P2;PMS_P1;PMS_P2;Temp;Humidity;BMP_temperature;BMP_pressure;BME280_temperature;BME280_humidity;BME280_pressure;Samples;Min_cycle;Max_cycle;Signal;HPM_P1;HPM_P2
2022/11/08 00:02:05;;;;;;;6.60;2.40;;;;;;;;;;5033111;28;20032;-73
2022/11/08 00:04:31;;;;;;;11.13;3.03;;;;;;;;;;5030902;28;20016;-73
2022/11/08 00:15:08;;;;;;;6.93;2.58;;;;;;;;;;5037560;28;20039;-73
2022/11/08 00:17:33;;;;;;;5.40;2.63;;;;;;;;;;5037053;28;20147;-73
2022/11/08 00:19:58;;;;;;;6.35;2.40;;;;;;;;;;5038917;28;20124;-73
2022/11/08 00:22:24;;;;;;;4.38;1.77;;;;;;;;;;5034197;28;20035;-73
2022/11/08 00:24:50;;;;;;;8.93;2.45;;;;;;;;;;5038375;28;20124;-73
2022/11/08 00:27:20;;;;;;;4.70;2.38;;;;;;;;;;5037550;28;20078;-73
2022/11/08 00:29:45;;;;;;;8.82;3.22;;;;;;;;;;5028963;28;20017;-73
2022/11/08 00:32:12;;;;;;;5.77;2.53;;;;;;;;;;5032333;28;20561;-73
2022/11/08 00:34:37;;;;;;;14.13;2.88;;;;;;;;;;5028855;28;20263;-73
2022/11/08 00:37:02;;;;;;;6.40;2.53;;;;;;;;;;5031743;28;20481;-73
2022/11/08 00:39:28;;;;;;;8.00;2.40;;;;;;;;;;5036942;28;20937;-73
2022/11/08 00:41:53;;;;;;;9.38;2.28;;;;;;;;;;5032875;28;20996;-73
2022/11/08 00:44:18;;;;;;;5.43;1.95;;;;;;;;;;5036669;28;20028;-73
2022/11/08 00:46:44;;;;;;;8.38;2.40;;;;;;;;;;5027777;28;20087;-73
2022/11/08 00:49:09;;;;;;;7.00;2.47;;;;;;;;;;5022027;28;20474;-74
2022/11/08 00:51:36;;;;;;;15.65;2.70;;;;;;;;;;5054286;28;20024;-74
2022/11/08 00:54:01;;;;;;;6.43;2.42;;;;;;;;;;5025601;28;20021;-74
2022/11/08 00:56:26;;;;;;;6.50;2.13;;;;;;;;;;5035971;28;20128;-73
2022/11/08 00:58:51;;;;;;;7.33;2.57;;;;;;;;;;5037931;28;20017;-74
2022/11/08 01:01:18;;;;;;;7.43;2.57;;;;;;;;;;5027598;28;20273;-73
2022/11/08 01:03:43;;;;;;;6.95;2.67;;;;;;;;;;5042282;28;20275;-74
2022/11/08 01:06:09;;;;;;;8.63;2.78;;;;;;;;;;5037276;28;20178;-74
2022/11/08 01:08:35;;;;;;;7.65;2.72;;;;;;;;;;5036458;28;20066;-73
2022/11/08 01:11:01;;;;;;;8.88;2.78;;;;;;;;;;5038613;28;20035;-74
2022/11/08 01:13:26;;;;;;;5.35;2.10;;;;;;;;;;5037526;28;20025;-73
2022/11/08 01:15:52;;;;;;;8.60;2.78;;;;;;;;;;5030083;28;20996;-74
2022/11/08 01:18:17;;;;;;;13.40;2.63;;;;;;;;;;5032063;28;20312;-72
2022/11/08 01:20:43;;;;;;;4.13;1.85;;;;;;;;;;5033494;28;20281;-73
2022/11/08 01:23:09;;;;;;;8.32;2.58;;;;;;;;;;5021102;28;20025;-73
2022/11/08 01:25:39;;;;;;;7.20;2.47;;;;;;;;;;5030616;28;20850;-73
2022/11/08 01:28:05;;;;;;;5.38;2.78;;;;;;;;;;5023073;28;20137;-74
2022/11/08 01:30:30;;;;;;;5.93;1.90;;;;;;;;;;5019300;28;20755;-74
2022/11/08 01:32:55;;;;;;;3.72;2.08;;;;;;;;;;5035102;28;20020;-73
2022/11/08 01:35:20;;;;;;;10.27;3.20;;;;;;;;;;5025840;28;20171;-73
2022/11/08 01:37:46;;;;;;;8.77;2.43;;;;;;;;;;5037885;28;20028;-74
2022/11/08 01:40:11;;;;;;;9.90;2.93;;;;;;;;;;5038839;28;20279;-73
2022/11/08 01:42:36;;;;;;;5.70;2.47;;;;;;;;;;5037781;28;20409;-74
2022/11/08 01:45:06;;;;;;;8.63;2.87;;;;;;;;;;5039665;28;20902;-74
2022/11/08 01:47:31;;;;;;;8.05;2.25;;;;;;;;;;5044619;28;20286;-74
2022/11/08 01:50:00;;;;;;;6.57;2.33;;;;;;;;;;5038356;28;20056;-74
2022/11/08 01:52:30;;;;;;;9.95;2.63;;;;;;;;;;5038187;28;20271;-74
2022/11/08 01:54:58;;;;;;;7.10;2.35;;;;;;;;;;5043145;28;20020;-73
2022/11/08 01:57:31;;;;;;;9.77;2.60;;;;;;;;;;5043791;28;20091;-74
2022/11/08 01:59:59;;;;;;;6.00;2.35;;;;;;;;;;5037310;28;20076;-74
2022/11/08 02:02:25;;;;;;;6.72;2.08;;;;;;;;;;5029819;28;20889;-73
2022/11/08 02:04:51;;;;;;;7.32;2.25;;;;;;;;;;5037784;28;20226;-74
2022/11/08 02:07:16;;;;;;;10.30;2.65;;;;;;;;;;5049244;28;20568;-73
2022/11/08 02:09:43;;;;;;;10.02;2.65;;;;;;;;;;5038660;28;20467;-73
2022/11/08 02:12:09;;;;;;;12.52;2.33;;;;;;;;;;5038242;28;20012;-74
2022/11/08 02:14:35;;;;;;;5.20;1.90;;;;;;;;;;5044531;28;20028;-74
2022/11/08 02:17:00;;;;;;;5.70;2.50;;;;;;;;;;5041798;28;20031;-74
2022/11/08 02:19:31;;;;;;;5.13;2.03;;;;;;;;;;5041832;28;20032;-74
2022/11/08 02:22:00;;;;;;;7.88;2.72;;;;;;;;;;5047293;28;20016;-75
2022/11/08 02:24:25;;;;;;;6.90;2.10;;;;;;;;;;5038173;28;20033;-74
2022/11/08 02:26:51;;;;;;;6.53;2.42;;;;;;;;;;5036294;28;20028;-73
2022/11/08 02:29:26;;;;;;;5.65;2.08;;;;;;;;;;5038013;28;20032;-74
2022/11/08 02:31:51;;;;;;;5.20;2.42;;;;;;;;;;5037681;28;20161;-74
2022/11/08 02:34:17;;;;;;;5.40;2.20;;;;;;;;;;5037422;28;20852;-74
2022/11/08 02:36:44;;;;;;;4.32;2.30;;;;;;;;;;5043104;28;20040;-74
2022/11/08 02:39:10;;;;;;;5.88;2.40;;;;;;;;;;5064340;28;20182;-74
2022/11/08 02:41:35;;;;;;;10.83;2.50;;;;;;;;;;5041119;28;20028;-75
2022/11/08 02:44:00;;;;;;;6.45;2.33;;;;;;;;;;5037734;28;20262;-73
2022/11/08 02:46:26;;;;;;;5.83;2.90;;;;;;;;;;5030843;28;20067;-74
2022/11/08 02:48:51;;;;;;;11.30;3.20;;;;;;;;;;5026370;28;20263;-74
2022/11/08 02:51:16;;;;;;;8.77;3.17;;;;;;;;;;5033022;28;21174;-74
2022/11/08 02:53:41;;;;;;;13.87;3.13;;;;;;;;;;5039104;28;20298;-74
2022/11/08 02:56:07;;;;;;;9.77;3.33;;;;;;;;;;5024636;28;21232;-74
2022/11/08 02:58:32;;;;;;;5.95;2.67;;;;;;;;;;5046672;28;20036;-73
2022/11/08 03:00:57;;;;;;;9.27;3.47;;;;;;;;;;5039063;28;20105;-74
2022/11/08 03:03:23;;;;;;;5.73;2.93;;;;;;;;;;5033253;28;21060;-74
2022/11/08 03:05:48;;;;;;;10.00;3.85;;;;;;;;;;5032889;28;20697;-74
2022/11/08 03:08:13;;;;;;;5.90;2.67;;;;;;;;;;5036235;28;20036;-73
2022/11/08 03:10:38;;;;;;;5.90;3.15;;;;;;;;;;5038133;28;20270;-73
2022/11/08 03:13:05;;;;;;;7.22;3.03;;;;;;;;;;5055408;28;20027;-74
2022/11/08 03:15:30;;;;;;;4.72;2.67;;;;;;;;;;5043267;28;20024;-74
2022/11/08 03:17:56;;;;;;;7.32;3.08;;;;;;;;;;5034624;28;20016;-74
2022/11/08 03:20:21;;;;;;;10.80;3.67;;;;;;;;;;5036631;28;20815;-74
2022/11/08 03:22:46;;;;;;;7.63;3.30;;;;;;;;;;5034778;28;20039;-74
2022/11/08 03:25:12;;;;;;;8.60;3.03;;;;;;;;;;5037545;28;20016;-74
2022/11/08 03:27:37;;;;;;;8.00;3.05;;;;;;;;;;5037687;28;20029;-74
2022/11/08 03:30:03;;;;;;;7.38;2.58;;;;;;;;;;5052933;28;20093;-74
2022/11/08 03:32:28;;;;;;;9.32;3.25;;;;;;;;;;5043753;28;20023;-74
2022/11/08 03:34:54;;;;;;;9.13;2.50;;;;;;;;;;5031851;28;20025;-74
2022/11/08 03:37:21;;;;;;;4.60;2.03;;;;;;;;;;5042575;28;20289;-73
2022/11/08 03:39:47;;;;;;;4.43;2.35;;;;;;;;;;5037599;28;21180;-74
2022/11/08 03:42:12;;;;;;;6.23;2.20;;;;;;;;;;5039424;28;20112;-75
2022/11/08 03:44:37;;;;;;;7.70;2.47;;;;;;;;;;5052230;28;20265;-74
2022/11/08 03:47:02;;;;;;;5.53;2.30;;;;;;;;;;5028022;28;20033;-74
2022/11/08 03:49:27;;;;;;;4.75;1.85;;;;;;;;;;5035278;28;20278;-75
2022/11/08 03:51:53;;;;;;;14.40;2.27;;;;;;;;;;5026373;28;20899;-74
2022/11/08 03:54:18;;;;;;;6.78;2.80;;;;;;;;;;5037365;28;21136;-74
2022/11/08 03:56:43;;;;;;;7.65;2.47;;;;;;;;;;5047720;28;20028;-74
2022/11/08 03:59:10;;;;;;;5.33;2.13;;;;;;;;;;5028013;28;20021;-74
2022/11/08 04:01:35;;;;;;;7.03;2.42;;;;;;;;;;5034149;28;20274;-74
2022/11/08 04:04:00;;;;;;;7.13;2.10;;;;;;;;;;5038857;28;20017;-74
2022/11/08 04:06:25;;;;;;;6.72;2.35;;;;;;;;;;5036171;28;20742;-74
2022/11/08 04:08:50;;;;;;;4.60;1.73;;;;;;;;;;5035587;28;20024;-74
2022/11/08 04:16:43;;;;;;;5.38;1.77;;;;;;;;;;5037558;28;20129;-74
2022/11/08 04:21:53;;;;;;;5.00;1.85;;;;;;;;;;5031004;28;21445;-74
2022/11/08 04:24:18;;;;;;;6.68;2.53;;;;;;;;;;5036621;28;20034;-73
2022/11/08 04:26:44;;;;;;;4.30;1.63;;;;;;;;;;5049581;28;20032;-73
2022/11/08 04:29:09;;;;;;;7.77;2.00;;;;;;;;;;5040601;28;20025;-74
2022/11/08 04:31:34;;;;;;;4.97;2.22;;;;;;;;;;5064701;28;20282;-74
2022/11/08 04:33:59;;;;;;;5.47;2.17;;;;;;;;;;5025037;28;20083;-74
2022/11/08 04:36:25;;;;;;;6.10;2.00;;;;;;;;;;5032621;28;20032;-74
2022/11/08 04:38:50;;;;;;;5.15;1.80;;;;;;;;;;5033998;28;20017;-73
2022/11/08 04:41:17;;;;;;;4.43;1.67;;;;;;;;;;5037607;28;20017;-74
2022/11/08 04:43:43;;;;;;;5.82;2.47;;;;;;;;;;5023647;28;20044;-74
2022/11/08 04:46:11;;;;;;;4.07;1.83;;;;;;;;;;5032972;28;20035;-73
2022/11/08 04:48:37;;;;;;;3.85;1.85;;;;;;;;;;5032186;28;20029;-74
2022/11/08 04:51:16;;;;;;;4.07;1.60;;;;;;;;;;5024626;28;20134;-74
2022/11/08 04:53:41;;;;;;;5.95;1.63;;;;;;;;;;5025695;28;20028;-74
2022/11/08 04:56:08;;;;;;;3.40;1.90;;;;;;;;;;5030289;28;20064;-75
2022/11/08 04:58:37;;;;;;;6.43;2.00;;;;;;;;;;5034964;28;20833;-74
2022/11/08 05:01:03;;;;;;;4.53;1.80;;;;;;;;;;5035767;28;20885;-74
2022/11/08 05:03:29;;;;;;;7.07;2.05;;;;;;;;;;5035960;28;20012;-74
2022/11/08 05:05:54;;;;;;;6.45;1.88;;;;;;;;;;5034485;28;20845;-74
2022/11/08 05:08:19;;;;;;;3.53;1.95;;;;;;;;;;5034896;28;20493;-75
2022/11/08 05:10:44;;;;;;;3.08;1.60;;;;;;;;;;5049638;28;20048;-75
2022/11/08 05:13:10;;;;;;;4.73;2.10;;;;;;;;;;5038229;28;20135;-78
2022/11/08 05:15:35;;;;;;;3.33;1.48;;;;;;;;;;5037359;28;20267;-76
2022/11/08 05:18:00;;;;;;;4.77;1.97;;;;;;;;;;5038825;28;20009;-78
2022/11/08 05:23:25;;;;;;;4.13;1.73;;;;;;;;;;5028189;28;20956;-75
2022/11/08 05:25:52;;;;;;;6.32;2.38;;;;;;;;;;5036539;28;20028;-75
2022/11/08 05:28:17;;;;;;;3.35;1.40;;;;;;;;;;5037400;28;20017;-77
2022/11/08 05:30:42;;;;;;;6.18;2.08;;;;;;;;;;5051577;28;20457;-76
2022/11/08 05:33:08;;;;;;;5.70;1.92;;;;;;;;;;5037306;28;20557;-75
2022/11/08 05:35:34;;;;;;;8.38;2.42;;;;;;;;;;5036578;28;20017;-76
2022/11/08 05:37:59;;;;;;;4.22;1.83;;;;;;;;;;5035335;28;20096;-76
2022/11/08 05:40:24;;;;;;;5.47;1.80;;;;;;;;;;5035988;28;20036;-75
2022/11/08 05:42:51;;;;;;;3.43;1.67;;;;;;;;;;5035918;28;20275;-75
2022/11/08 05:45:16;;;;;;;2.20;1.10;;;;;;;;;;5036470;28;20266;-76
2022/11/08 05:47:45;;;;;;;8.37;1.93;;;;;;;;;;5033616;28;20076;-76
2022/11/08 05:50:11;;;;;;;4.30;1.80;;;;;;;;;;5033767;28;21380;-75
2022/11/08 05:52:36;;;;;;;3.40;1.45;;;;;;;;;;5041306;28;20031;-74
2022/11/08 05:55:01;;;;;;;3.10;1.70;;;;;;;;;;5029422;28;20938;-74
2022/11/08 05:57:27;;;;;;;5.97;2.25;;;;;;;;;;5033526;28;20073;-75
2022/11/08 05:59:52;;;;;;;4.43;1.95;;;;;;;;;;5036769;28;20144;-75
2022/11/08 06:02:17;;;;;;;7.77;1.40;;;;;;;;;;5045738;28;20016;-77
2022/11/08 06:04:42;;;;;;;5.90;1.83;;;;;;;;;;5037526;28;20270;-75
2022/11/08 06:07:08;;;;;;;3.88;1.75;;;;;;;;;;5038426;28;20090;-74
2022/11/08 06:09:33;;;;;;;3.75;1.40;;;;;;;;;;5038160;28;20017;-74
2022/11/08 06:11:59;;;;;;;4.80;1.70;;;;;;;;;;5038200;28;20019;-74
2022/11/08 06:14:24;;;;;;;5.33;2.13;;;;;;;;;;5039213;28;20090;-74
2022/11/08 06:16:49;;;;;;;3.38;1.60;;;;;;;;;;5053472;28;20289;-75
2022/11/08 06:19:14;;;;;;;5.90;2.10;;;;;;;;;;5038139;28;20942;-74
2022/11/08 06:21:40;;;;;;;5.50;1.70;;;;;;;;;;5021823;28;20291;-74
2022/11/08 06:24:05;;;;;;;3.57;2.00;;;;;;;;;;5035445;28;20016;-75
2022/11/08 06:26:30;;;;;;;5.47;1.90;;;;;;;;;;5035121;28;20452;-75
2022/11/08 06:28:55;;;;;;;4.15;1.83;;;;;;;;;;5040748;28;20082;-74
2022/11/08 06:31:20;;;;;;;3.67;1.63;;;;;;;;;;5045263;28;20034;-75
2022/11/08 06:33:46;;;;;;;6.38;2.35;;;;;;;;;;5061913;28;20274;-77
2022/11/08 06:36:11;;;;;;;5.15;2.03;;;;;;;;;;5061429;28;20032;-76
2022/11/08 06:38:36;;;;;;;6.47;1.97;;;;;;;;;;5051044;28;20016;-76
2022/11/08 06:41:02;;;;;;;3.27;1.90;;;;;;;;;;5048784;28;20317;-76
2022/11/08 06:43:27;;;;;;;3.95;1.90;;;;;;;;;;5036103;28;20281;-76
2022/11/08 06:45:52;;;;;;;4.97;2.03;;;;;;;;;;5024973;28;20085;-75
2022/11/08 06:48:17;;;;;;;5.97;2.00;;;;;;;;;;5019078;28;20024;-75
2022/11/08 06:50:43;;;;;;;5.47;2.13;;;;;;;;;;5044932;28;20293;-75
2022/11/08 06:53:10;;;;;;;5.45;2.13;;;;;;;;;;5033310;28;20266;-77
2022/11/08 06:55:35;;;;;;;10.13;2.78;;;;;;;;;;5035806;28;20109;-76
2022/11/08 06:58:01;;;;;;;8.27;2.20;;;;;;;;;;5032742;28;20034;-76
2022/11/08 07:00:27;;;;;;;3.95;1.75;;;;;;;;;;5028398;28;20035;-74
2022/11/08 07:02:52;;;;;;;4.15;1.80;;;;;;;;;;5027410;28;20021;-76
2022/11/08 07:05:18;;;;;;;6.68;1.85;;;;;;;;;;5022546;28;20095;-72
2022/11/08 07:07:43;;;;;;;3.65;1.70;;;;;;;;;;5033134;28;20024;-77
2022/11/08 07:10:08;;;;;;;10.10;2.03;;;;;;;;;;5030623;28;20027;-77
2022/11/08 07:12:34;;;;;;;4.65;1.70;;;;;;;;;;5036070;28;20033;-77
2022/11/08 07:14:59;;;;;;;4.50;1.92;;;;;;;;;;5042351;28;20024;-79
2022/11/08 07:17:24;;;;;;;4.18;2.17;;;;;;;;;;5042426;28;20024;-77
2022/11/08 07:19:49;;;;;;;3.63;1.70;;;;;;;;;;5040421;28;20024;-76
2022/11/08 07:22:14;;;;;;;5.57;1.67;;;;;;;;;;5028419;28;20036;-78
2022/11/08 07:24:40;;;;;;;4.53;1.70;;;;;;;;;;5032831;28;21213;-76
2022/11/08 07:27:05;;;;;;;5.63;2.03;;;;;;;;;;5047855;28;20293;-75
2022/11/08 07:29:30;;;;;;;8.13;1.80;;;;;;;;;;5069541;28;20274;-74
2022/11/08 07:31:55;;;;;;;3.53;1.50;;;;;;;;;;5040895;28;20295;-76
2022/11/08 07:34:22;;;;;;;5.70;1.95;;;;;;;;;;5050310;28;20977;-76
2022/11/08 07:36:47;;;;;;;5.28;1.70;;;;;;;;;;5049931;28;20032;-75
2022/11/08 07:39:13;;;;;;;4.13;1.23;;;;;;;;;;5059215;28;20887;-73
2022/11/08 07:41:38;;;;;;;3.47;1.47;;;;;;;;;;5045742;28;20992;-74
2022/11/08 07:44:03;;;;;;;4.40;1.70;;;;;;;;;;5036647;28;21239;-74
2022/11/08 07:46:28;;;;;;;6.63;1.33;;;;;;;;;;5044290;28;20301;-74
2022/11/08 07:48:54;;;;;;;3.65;1.50;;;;;;;;;;5036512;28;20075;-74
2022/11/08 07:51:19;;;;;;;2.78;1.10;;;;;;;;;;5048298;28;20417;-74
2022/11/08 07:53:44;;;;;;;4.70;1.83;;;;;;;;;;5045457;28;20048;-75
2022/11/08 07:56:09;;;;;;;10.30;2.00;;;;;;;;;;5031666;28;20784;-73
2022/11/08 07:58:35;;;;;;;4.72;1.73;;;;;;;;;;5034648;28;20127;-73
2022/11/08 08:01:02;;;;;;;3.03;1.27;;;;;;;;;;5033250;28;20024;-74
2022/11/08 08:03:27;;;;;;;3.50;1.45;;;;;;;;;;5037515;28;20539;-73
2022/11/08 08:05:52;;;;;;;2.88;1.48;;;;;;;;;;5029088;28;20016;-72
2022/11/08 08:08:18;;;;;;;4.75;1.80;;;;;;;;;;5045928;28;20036;-73
2022/11/08 08:10:43;;;;;;;2.38;1.20;;;;;;;;;;5030231;28;20899;-73
2022/11/08 08:13:08;;;;;;;3.13;1.52;;;;;;;;;;5029116;28;20020;-73
2022/11/08 08:15:34;;;;;;;3.55;1.30;;;;;;;;;;5028901;28;20028;-73
2022/11/08 08:18:00;;;;;;;3.65;1.42;;;;;;;;;;5033422;28;20752;-73
2022/11/08 08:20:25;;;;;;;4.03;1.48;;;;;;;;;;5034767;28;20020;-73
2022/11/08 08:22:51;;;;;;;4.13;1.48;;;;;;;;;;5028338;28;20044;-74
2022/11/08 08:25:17;;;;;;;4.43;1.77;;;;;;;;;;5033297;28;20030;-72
2022/11/08 08:27:48;;;;;;;5.68;1.60;;;;;;;;;;5029693;28;20079;-73
2022/11/08 08:30:14;;;;;;;4.95;1.77;;;;;;;;;;5029498;28;20020;-72
2022/11/08 08:32:39;;;;;;;3.25;1.23;;;;;;;;;;5032097;28;20930;-74
2022/11/08 08:35:04;;;;;;;4.57;1.60;;;;;;;;;;5037477;28;20849;-73
2022/11/08 08:37:30;;;;;;;3.35;1.65;;;;;;;;;;5046949;28;20061;-73
2022/11/08 08:39:55;;;;;;;5.63;1.43;;;;;;;;;;5044464;28;20124;-73
2022/11/08 08:42:20;;;;;;;4.33;1.40;;;;;;;;;;5034484;28;20332;-73
2022/11/08 08:44:45;;;;;;;3.20;1.33;;;;;;;;;;5030052;28;20305;-72
2022/11/08 08:47:10;;;;;;;1.90;1.00;;;;;;;;;;5034296;28;20195;-73
2022/11/08 08:49:36;;;;;;;3.42;1.23;;;;;;;;;;5041075;28;20267;-73
2022/11/08 08:52:01;;;;;;;4.03;1.60;;;;;;;;;;5045644;28;20185;-72
2022/11/08 08:54:26;;;;;;;2.60;1.27;;;;;;;;;;5049829;28;20274;-74
2022/11/08 08:56:52;;;;;;;5.63;1.63;;;;;;;;;;5041366;28;20278;-72
2022/11/08 08:59:17;;;;;;;3.55;1.30;;;;;;;;;;5041338;28;20267;-73
2022/11/08 09:01:42;;;;;;;4.15;1.40;;;;;;;;;;5051735;28;20067;-72
2022/11/08 09:04:08;;;;;;;3.78;1.48;;;;;;;;;;5045566;28;20077;-74
2022/11/08 09:06:33;;;;;;;3.25;1.40;;;;;;;;;;5038741;28;20056;-72
2022/11/08 09:08:59;;;;;;;4.38;1.50;;;;;;;;;;5040435;28;20027;-73
2022/11/08 09:11:24;;;;;;;9.00;2.00;;;;;;;;;;5042094;28;20026;-74
2022/11/08 09:13:49;;;;;;;4.25;1.25;;;;;;;;;;5038785;28;20776;-72
2022/11/08 09:16:14;;;;;;;3.42;1.40;;;;;;;;;;5048006;28;20027;-72
2022/11/08 09:18:40;;;;;;;3.53;1.42;;;;;;;;;;5057783;28;20030;-74
2022/11/08 09:21:05;;;;;;;2.53;1.30;;;;;;;;;;5038920;28;20013;-74
2022/11/08 09:23:31;;;;;;;4.57;1.60;;;;;;;;;;5036658;28;20606;-73
2022/11/08 09:25:57;;;;;;;3.90;1.45;;;;;;;;;;5052214;28;20059;-72
2022/11/08 09:28:22;;;;;;;2.90;1.42;;;;;;;;;;5040463;28;20021;-72
2022/11/08 09:30:47;;;;;;;4.55;1.33;;;;;;;;;;5041521;28;20198;-73
2022/11/08 09:33:12;;;;;;;5.07;1.45;;;;;;;;;;5032561;28;20021;-72
2022/11/08 09:35:38;;;;;;;3.22;1.45;;;;;;;;;;5044810;28;20461;-74
2022/11/08 09:38:03;;;;;;;4.00;1.37;;;;;;;;;;5044258;28;20047;-73
2022/11/08 09:40:41;;;;;;;7.50;1.50;;;;;;;;;;5036947;28;20343;-77
2022/11/08 09:43:21;;;;;;;4.78;1.63;;;;;;;;;;5038329;28;20309;-75
2022/11/08 09:45:48;;;;;;;6.00;1.73;;;;;;;;;;5040349;28;20021;-73
2022/11/08 09:48:20;;;;;;;3.42;1.45;;;;;;;;;;5030895;28;20818;-73
2022/11/08 09:50:46;;;;;;;4.97;1.35;;;;;;;;;;5042287;28;20143;-73
2022/11/08 09:53:15;;;;;;;2.92;1.45;;;;;;;;;;5039837;28;20020;-74
2022/11/08 09:55:50;;;;;;;4.03;1.50;;;;;;;;;;5046717;28;20488;-73
2022/11/08 09:58:18;;;;;;;3.63;1.20;;;;;;;;;;5044236;28;20036;-74
2022/11/08 10:00:44;;;;;;;2.60;1.08;;;;;;;;;;5040319;28;20809;-74
2022/11/08 10:03:14;;;;;;;5.65;1.45;;;;;;;;;;5043062;28;20020;-74
2022/11/08 10:05:41;;;;;;;7.63;1.65;;;;;;;;;;5032763;28;20486;-74
2022/11/08 10:08:10;;;;;;;3.50;1.38;;;;;;;;;;5055462;28;20993;-77
2022/11/08 10:10:57;;;;;;;2.72;1.15;;;;;;;;;;5027657;28;20169;-74
2022/11/08 10:13:25;;;;;;;3.33;1.45;;;;;;;;;;5029015;28;20025;-75
2022/11/08 10:16:05;;;;;;;2.92;1.23;;;;;;;;;;5034689;28;20024;-75
2022/11/08 10:18:33;;;;;;;6.35;1.23;;;;;;;;;;5034840;28;20099;-75
2022/11/08 10:21:03;;;;;;;3.95;1.67;;;;;;;;;;5040931;28;20025;-79
2022/11/08 10:23:39;;;;;;;4.18;1.40;;;;;;;;;;5036594;28;20794;-81
2022/11/08 10:26:06;;;;;;;4.22;1.25;;;;;;;;;;5037104;28;20899;-75
2022/11/08 10:28:35;;;;;;;7.32;1.45;;;;;;;;;;5037837;28;20029;-77
2022/11/08 10:31:01;;;;;;;3.53;1.23;;;;;;;;;;5039150;28;20027;-72
2022/11/08 10:33:30;;;;;;;3.95;1.63;;;;;;;;;;5040447;28;20082;-72
2022/11/08 10:35:56;;;;;;;2.60;1.08;;;;;;;;;;4985533;28;1608240;-72
2022/11/08 10:38:24;;;;;;;2.58;1.45;;;;;;;;;;5040367;28;20047;-73
2022/11/08 10:40:58;;;;;;;3.42;1.50;;;;;;;;;;5047767;28;20442;-73
2022/11/08 10:43:29;;;;;;;2.58;1.30;;;;;;;;;;5047113;28;20024;-74
2022/11/08 10:45:54;;;;;;;4.57;1.30;;;;;;;;;;5045010;28;20020;-73
2022/11/08 10:48:19;;;;;;;5.85;1.88;;;;;;;;;;5034454;28;20856;-71
2022/11/08 10:50:47;;;;;;;2.77;1.07;;;;;;;;;;5037753;28;20027;-73
2022/11/08 10:53:20;;;;;;;5.05;1.52;;;;;;;;;;5040103;28;21181;-73
2022/11/08 10:55:47;;;;;;;5.25;1.65;;;;;;;;;;5037799;28;20013;-73
2022/11/08 10:58:32;;;;;;;2.55;1.38;;;;;;;;;;5039888;28;20127;-73
2022/11/08 11:01:17;;;;;;;4.22;1.30;;;;;;;;;;5033738;28;20036;-72
2022/11/08 11:03:44;;;;;;;2.45;1.17;;;;;;;;;;5038024;28;20024;-74
2022/11/08 11:06:28;;;;;;;3.95;1.45;;;;;;;;;;5038415;28;20033;-76
2022/11/08 11:08:55;;;;;;;3.42;1.60;;;;;;;;;;5031693;28;20136;-72
2022/11/08 11:11:34;;;;;;;3.65;1.70;;;;;;;;;;5037108;28;20078;-75
2022/11/08 11:14:11;;;;;;;3.63;1.13;;;;;;;;;;5038832;28;20029;-73
2022/11/08 11:16:37;;;;;;;4.25;1.65;;;;;;;;;;5044092;28;20952;-74
2022/11/08 11:19:04;;;;;;;5.05;1.65;;;;;;;;;;5033571;28;20074;-72
2022/11/08 11:21:37;;;;;;;3.78;1.50;;;;;;;;;;5045468;28;20032;-75
2022/11/08 11:24:10;;;;;;;4.22;1.80;;;;;;;;;;5041212;28;20019;-73
2022/11/08 11:26:59;;;;;;;5.13;1.75;;;;;;;;;;5025561;28;20067;-73
2022/11/08 11:29:27;;;;;;;4.80;1.63;;;;;;;;;;5031251;28;20039;-76
2022/11/08 11:31:53;;;;;;;5.28;1.52;;;;;;;;;;5036278;28;20474;-73
2022/11/08 11:34:18;;;;;;;3.28;1.42;;;;;;;;;;5055548;28;20024;-73
2022/11/08 11:37:00;;;;;;;5.00;1.63;;;;;;;;;;5043614;28;20035;-75
2022/11/08 11:39:44;;;;;;;2.67;1.27;;;;;;;;;;5034194;28;20029;-74
2022/11/08 11:42:26;;;;;;;2.83;1.20;;;;;;;;;;5044953;28;20085;-74
2022/11/08 11:44:59;;;;;;;2.88;1.52;;;;;;;;;;5042256;28;20131;-73
2022/11/08 11:47:32;;;;;;;3.28;1.20;;;;;;;;;;5043047;28;20055;-75
2022/11/08 11:50:01;;;;;;;4.82;1.50;;;;;;;;;;5035658;28;20912;-73
2022/11/08 11:52:26;;;;;;;2.95;1.30;;;;;;;;;;5033838;28;20021;-74
2022/11/08 11:54:52;;;;;;;4.28;1.73;;;;;;;;;;5042436;28;20991;-74
2022/11/08 11:57:17;;;;;;;3.40;1.27;;;;;;;;;;5039544;28;20123;-75
2022/11/08 12:00:11;;;;;;;5.43;1.60;;;;;;;;;;5037410;28;20281;-74
2022/11/08 12:02:42;;;;;;;7.57;1.80;;;;;;;;;;5031957;28;20876;-73
2022/11/08 12:05:11;;;;;;;4.60;1.50;;;;;;;;;;5041049;28;20031;-75
2022/11/08 12:07:42;;;;;;;4.43;1.33;;;;;;;;;;5039135;28;20036;-73
2022/11/08 12:10:13;;;;;;;3.20;1.40;;;;;;;;;;5028840;28;20021;-76
2022/11/08 12:12:44;;;;;;;3.75;1.35;;;;;;;;;;5046013;28;20024;-76
2022/11/08 12:15:40;;;;;;;4.13;1.52;;;;;;;;;;5058751;28;20031;-80
2022/11/08 12:18:14;;;;;;;5.10;1.63;;;;;;;;;;5053040;28;20082;-78
2022/11/08 12:20:48;;;;;;;2.22;1.00;;;;;;;;;;5070484;28;20027;-75
2022/11/08 12:23:31;;;;;;;5.20;1.50;;;;;;;;;;5072722;28;20073;-74
2022/11/08 12:26:00;;;;;;;4.85;1.15;;;;;;;;;;5062547;28;20031;-74
2022/11/08 12:28:44;;;;;;;4.43;1.55;;;;;;;;;;5060148;28;20036;-72
2022/11/08 12:31:14;;;;;;;7.68;1.70;;;;;;;;;;5064806;28;20012;-74
2022/11/08 12:33:57;;;;;;;8.32;1.65;;;;;;;;;;5060224;28;20083;-75
2022/11/08 12:36:35;;;;;;;3.22;1.27;;;;;;;;;;5069194;28;20474;-76
2022/11/08 12:39:00;;;;;;;3.13;1.30;;;;;;;;;;5053348;28;20021;-73
2022/11/08 12:41:41;;;;;;;2.97;1.33;;;;;;;;;;5073222;28;20035;-74
2022/11/08 12:44:09;;;;;;;5.90;1.80;;;;;;;;;;5057277;28;20325;-74
2022/11/08 12:46:46;;;;;;;4.20;1.50;;;;;;;;;;5068820;28;20026;-73
2022/11/08 12:49:15;;;;;;;4.43;1.83;;;;;;;;;;5071657;28;20032;-74
2022/11/08 12:51:57;;;;;;;2.78;1.13;;;;;;;;;;5058699;28;20013;-75
2022/11/08 12:54:25;;;;;;;9.10;1.90;;;;;;;;;;5074288;28;20025;-73
2022/11/08 12:56:52;;;;;;;4.20;1.42;;;;;;;;;;5082001;28;20031;-75
2022/11/08 12:59:19;;;;;;;3.53;1.20;;;;;;;;;;5082663;28;20512;-74
2022/11/08 13:01:45;;;;;;;3.30;1.42;;;;;;;;;;5090257;28;20016;-76
2022/11/08 13:04:12;;;;;;;5.47;1.95;;;;;;;;;;5067144;28;20032;-74
2022/11/08 13:06:37;;;;;;;5.07;1.15;;;;;;;;;;5083250;28;20422;-74
2022/11/08 13:09:20;;;;;;;3.50;1.50;;;;;;;;;;5081649;28;20022;-75
2022/11/08 13:11:56;;;;;;;3.50;1.50;;;;;;;;;;5097650;28;20044;-75
2022/11/08 13:14:22;;;;;;;12.82;1.42;;;;;;;;;;5058758;28;20031;-75
2022/11/08 13:17:06;;;;;;;5.78;1.50;;;;;;;;;;5065090;28;20017;-76
2022/11/08 13:19:46;;;;;;;4.13;1.40;;;;;;;;;;5060798;28;20099;-75
2022/11/08 13:22:32;;;;;;;2.28;1.25;;;;;;;;;;5070244;28;20032;-72
2022/11/08 13:25:01;;;;;;;3.92;1.50;;;;;;;;;;5075509;28;20017;-78
2022/11/08 13:27:34;;;;;;;4.65;1.50;;;;;;;;;;5075593;28;20052;-78
2022/11/08 13:30:02;;;;;;;6.78;1.42;;;;;;;;;;5082039;28;20027;-79
2022/11/08 13:32:46;;;;;;;5.68;1.52;;;;;;;;;;5074440;28;20438;-76
2022/11/08 13:35:23;;;;;;;3.55;1.55;;;;;;;;;;5064039;28;20016;-77
2022/11/08 13:37:51;;;;;;;7.80;1.58;;;;;;;;;;5069495;28;20035;-79
2022/11/08 13:40:22;;;;;;;2.50;1.10;;;;;;;;;;5068997;28;20017;-77
2022/11/08 13:42:56;;;;;;;3.53;1.60;;;;;;;;;;5070199;28;20099;-76
2022/11/08 13:45:32;;;;;;;10.85;1.40;;;;;;;;;;5074313;28;20523;-78
2022/11/08 13:48:24;;;;;;;12.88;1.90;;;;;;;;;;5061182;28;20899;-76
2022/11/08 13:50:51;;;;;;;4.20;1.55;;;;;;;;;;5037448;28;20066;-75
2022/11/08 13:53:18;;;;;;;3.25;0.98;;;;;;;;;;5067884;28;20463;-77
2022/11/08 13:55:54;;;;;;;3.92;1.55;;;;;;;;;;5081952;28;20031;-75
2022/11/08 13:58:34;;;;;;;4.53;2.00;;;;;;;;;;5075319;28;20066;-75
2022/11/08 14:01:01;;;;;;;3.33;1.42;;;;;;;;;;5069679;28;20021;-76
2022/11/08 14:03:32;;;;;;;4.10;1.67;;;;;;;;;;5080933;28;20028;-76
2022/11/08 14:06:18;;;;;;;6.82;1.67;;;;;;;;;;5080508;28;20475;-77
2022/11/08 14:08:48;;;;;;;2.85;1.23;;;;;;;;;;5083859;28;20032;-76
2022/11/08 14:11:19;;;;;;;3.17;1.65;;;;;;;;;;5069051;28;20676;-74
2022/11/08 14:14:00;;;;;;;6.32;1.95;;;;;;;;;;5073937;28;20021;-76
2022/11/08 14:16:28;;;;;;;3.78;1.27;;;;;;;;;;5061329;28;20950;-75
2022/11/08 14:18:53;;;;;;;5.60;1.80;;;;;;;;;;5071896;28;20099;-77
2022/11/08 14:21:18;;;;;;;6.10;1.50;;;;;;;;;;5071920;28;20104;-76
2022/11/08 14:23:46;;;;;;;8.75;1.92;;;;;;;;;;5066688;28;20354;-77
2022/11/08 14:26:13;;;;;;;3.75;1.40;;;;;;;;;;5067747;28;20103;-75
2022/11/08 14:28:39;;;;;;;5.93;1.33;;;;;;;;;;5059718;28;20509;-75
2022/11/08 14:31:06;;;;;;;6.35;1.83;;;;;;;;;;5084949;28;20094;-75
2022/11/08 14:33:32;;;;;;;5.57;1.33;;;;;;;;;;5079780;28;20522;-75
2022/11/08 14:36:02;;;;;;;3.47;1.45;;;;;;;;;;5078042;28;20089;-76
2022/11/08 14:38:28;;;;;;;8.27;2.00;;;;;;;;;;5058307;28;20085;-76
2022/11/08 14:40:56;;;;;;;4.93;1.50;;;;;;;;;;5070677;28;20020;-76
2022/11/08 14:43:22;;;;;;;6.25;2.05;;;;;;;;;;5072793;28;20044;-74
2022/11/08 14:45:47;;;;;;;4.28;1.67;;;;;;;;;;5073142;28;20052;-75
2022/11/08 14:48:23;;;;;;;3.17;1.80;;;;;;;;;;5058321;28;20611;-75
2022/11/08 14:50:56;;;;;;;5.65;1.70;;;;;;;;;;5067490;28;20073;-73
2022/11/08 14:53:21;;;;;;;5.53;1.80;;;;;;;;;;5073001;28;20078;-74
2022/11/08 14:55:52;;;;;;;5.40;1.70;;;;;;;;;;5058115;28;20021;-75
2022/11/08 14:58:17;;;;;;;3.38;1.55;;;;;;;;;;5066189;28;20099;-75
2022/11/08 15:00:44;;;;;;;3.23;1.63;;;;;;;;;;5069943;28;20116;-76
2022/11/08 15:03:12;;;;;;;2.60;1.40;;;;;;;;;;5081464;28;20272;-76
2022/11/08 15:05:39;;;;;;;4.53;1.48;;;;;;;;;;5055233;28;20032;-77
2022/11/08 15:08:14;;;;;;;5.97;2.05;;;;;;;;;;5072539;28;20069;-71